Forester — DIUT — position and weather

sailwx.info

Track history (hours):
 
Tides and Currents Weather Stations Pressure Air Temp Water Temp Dewpoint Dewpoint Depression Visibility Wind Speed Wind Dir Waves Ship Positions

Forester

Last reported at 2017-Feb-21 00:22 UTC. Time now 2017-Feb-25 02:32 UTC.
Position N 38°18' E 013°11'.

Length 100 m; draft 6.4 m.

Type: Ship. MMSI: 211233870.

Date/timePositionNaut miles runAvg speedWind from/ knotsBaromVisibWave heightAir tempDewpointWater temp
2017-Feb-21 00:22N 38°18' E 013°11'810.5
2017-Feb-20 23:33N 38°18' E 013°22'5210.3
2017-Feb-20 18:30N 38°17' E 014°29'1010.6
2017-Feb-20 17:31N 38°17' E 014°42'1010.9
2017-Feb-20 16:33N 38°18' E 014°55'1010.4
2017-Feb-20 15:33N 38°19' E 015°09'1010.3
2017-Feb-20 14:33N 38°20' E 015°22'1110.7
2017-Feb-20 13:33N 38°21' E 015°35'7 7.0
2017-Feb-20 12:33N 38°14' E 015°38'9 8.8
2017-Feb-20 11:33N 38°06' E 015°36'10 9.5
2017-Feb-20 10:33N 37°56' E 015°38'1010.2
2017-Feb-20 09:33N 37°51' E 015°49'382 8.2
2017-Feb-18 11:07N 44°05' E 014°03'611.2
2017-Feb-18 10:33N 44°10' E 013°58'1111.3
2017-Feb-18 09:33N 44°19' E 013°49'1111.2
2017-Feb-18 08:33N 44°29' E 013°40'1111.0
2017-Feb-18 07:33N 44°38' E 013°32'1111.0
2017-Feb-18 06:33N 44°47' E 013°23'1111.0
2017-Feb-18 05:33N 44°56' E 013°15'1110.9
2017-Feb-18 04:33N 45°06' E 013°07'1110.8
2017-Feb-18 03:33N 45°16' E 013°03'1010.0
2017-Feb-18 02:33N 45°26' E 013°07'9 8.8
2017-Feb-18 01:33N 45°32' E 013°16'1010.0
2017-Feb-18 00:34N 45°36' E 013°29'10 9.8
2017-Feb-17 23:34N 45°34' E 013°43'1 1.1
2017-Feb-17 22:30N 45°33' E 013°44'0 0.0
2017-Feb-17 21:33N 45°33' E 013°44'0 0.0
2017-Feb-17 20:33N 45°33' E 013°44'0 0.0
2017-Feb-17 19:33N 45°33' E 013°44'0 0.0
2017-Feb-17 18:33N 45°33' E 013°44'0 0.0
2017-Feb-17 17:33N 45°33' E 013°44'0 0.0
2017-Feb-17 16:33N 45°33' E 013°44'0 0.0
2017-Feb-17 15:26N 45°33' E 013°44'0 0.0
2017-Feb-17 14:32N 45°33' E 013°44'0 0.0
2017-Feb-17 13:29N 45°33' E 013°44'0 0.0
2017-Feb-17 12:32N 45°33' E 013°44'0 0.0
2017-Feb-17 11:29N 45°33' E 013°44'0 0.0
2017-Feb-17 10:32N 45°33' E 013°44'0 0.0
2017-Feb-17 09:29N 45°33' E 013°44'0 0.0
2017-Feb-17 08:32N 45°33' E 013°44'0 0.0
2017-Feb-17 07:32N 45°33' E 013°44'0 0.0
2017-Feb-17 06:32N 45°33' E 013°44'0 0.0
2017-Feb-17 05:32N 45°33' E 013°44'0 0.0
2017-Feb-17 04:23N 45°33' E 013°44'0 0.0
2017-Feb-17 03:32N 45°33' E 013°44'0 0.0
2017-Feb-17 02:32N 45°33' E 013°44'0 0.0
2017-Feb-17 01:32N 45°33' E 013°44'0 0.0
2017-Feb-17 00:32N 45°33' E 013°44'0 0.0
2017-Feb-16 23:32N 45°33' E 013°44'0 0.0
2017-Feb-16 22:29N 45°33' E 013°44'0 0.0
2017-Feb-16 21:29N 45°33' E 013°44'0 0.0
2017-Feb-16 20:32N 45°33' E 013°44'0 0.0
2017-Feb-16 19:23N 45°33' E 013°44'0 0.0
2017-Feb-16 18:32N 45°33' E 013°44'0 0.0
2017-Feb-16 17:32N 45°33' E 013°44'0 0.0
2017-Feb-16 16:29N 45°33' E 013°44'0 0.0
2017-Feb-16 15:32N 45°33' E 013°44'0 0.0
2017-Feb-16 14:32N 45°33' E 013°44'0 0.0
2017-Feb-16 13:32N 45°33' E 013°44'0 0.0
2017-Feb-16 12:32N 45°33' E 013°44'0 0.0
2017-Feb-16 11:32N 45°33' E 013°44'0 0.0
2017-Feb-16 10:29N 45°33' E 013°44'0 0.0
2017-Feb-16 09:32N 45°33' E 013°44'0 0.0
2017-Feb-16 08:32N 45°33' E 013°44'0 0.0
2017-Feb-16 07:17N 45°33' E 013°44'0 0.0
2017-Feb-16 06:29N 45°33' E 013°44'0 0.0
2017-Feb-16 05:32N 45°33' E 013°44'0 0.0
2017-Feb-16 04:31N 45°33' E 013°44'0 0.0
2017-Feb-16 03:31N 45°33' E 013°44'0 0.0
2017-Feb-16 02:31N 45°33' E 013°44'0 0.0
2017-Feb-16 01:31N 45°33' E 013°44'0 0.0
2017-Feb-16 00:28N 45°33' E 013°44'0 0.0
2017-Feb-15 23:28N 45°33' E 013°44'0 0.0
2017-Feb-15 22:31N 45°33' E 013°44'0 0.0
2017-Feb-15 21:28N 45°33' E 013°44'1 1.0
2017-Feb-15 20:33N 45°33' E 013°43'9 9.4
2017-Feb-15 19:33N 45°33' E 013°29'1111.0
2017-Feb-15 18:33N 45°27' E 013°16'1010.2
2017-Feb-15 17:33N 45°17' E 013°13'9 9.0
2017-Feb-15 16:33N 45°08' E 013°13'1010.1
2017-Feb-15 15:33N 45°01' E 013°02'1211.6
2017-Feb-15 14:33N 44°52' E 012°52'1111.4
2017-Feb-15 13:33N 44°44' E 012°41'1411.1
2017-Feb-15 12:18N 44°34' E 012°28'9 9.2
2017-Feb-15 11:16N 44°29' E 012°16'1 1.1
2017-Feb-15 10:32N 44°28' E 012°16'0 0.0
2017-Feb-15 07:20N 44°28' E 012°16'0 0.0
2017-Feb-15 06:32N 44°28' E 012°16'0 0.0
2017-Feb-15 05:17N 44°28' E 012°16'0 0.0
2017-Feb-15 04:20N 44°28' E 012°16'0 0.0
2017-Feb-15 03:26N 44°28' E 012°16'0 0.0
2017-Feb-15 02:32N 44°28' E 012°16'0 0.0
2017-Feb-15 01:32N 44°28' E 012°16'0 0.0
2017-Feb-15 00:32N 44°28' E 012°16'0 0.0
2017-Feb-14 21:17N 44°28' E 012°16'9 0.2
2017-Feb-13 08:33N 44°30' E 012°28'1 0.4
2017-Feb-13 05:10N 44°31' E 012°30'0 0.0
2017-Feb-13 03:10N 44°31' E 012°30'0 0.0
2017-Feb-13 02:25N 44°31' E 012°30'0 0.0
2017-Feb-13 01:19N 44°31' E 012°30'0 0.0
2017-Feb-13 00:19N 44°31' E 012°30'1 0.8
2017-Feb-12 22:33N 44°30' E 012°32'10 7.9
2017-Feb-12 21:20N 44°30' E 012°45'7 8.1
2017-Feb-12 20:31N 44°29' E 012°54'8 8.2
2017-Feb-12 19:33N 44°28' E 013°05'7 6.8
2017-Feb-12 18:33N 44°23' E 013°12'8 7.9
2017-Feb-12 17:33N 44°16' E 013°18'  
Track history (hours):
 
Tides and Currents Weather Stations Pressure Air Temp Water Temp Dewpoint Dewpoint Depression Visibility Wind Speed Wind Dir Waves Ship Positions

Forester

Last reported at 2017-Feb-21 00:22 UTC. Time now 2017-Feb-25 02:32 UTC.
Position N 38°18' E 013°11'.

Length 100 m; draft 6.4 m.

Type: Ship. MMSI: 211233870.

Date/timePositionNaut miles runAvg speedWind from/ knotsBaromVisibWave heightAir tempDewpointWater temp
2017-Feb-21 00:22N 38°18' E 013°11'810.5
2017-Feb-20 23:33N 38°18' E 013°22'5210.3
2017-Feb-20 18:30N 38°17' E 014°29'1010.6
2017-Feb-20 17:31N 38°17' E 014°42'1010.9
2017-Feb-20 16:33N 38°18' E 014°55'1010.4
2017-Feb-20 15:33N 38°19' E 015°09'1010.3
2017-Feb-20 14:33N 38°20' E 015°22'1110.7
2017-Feb-20 13:33N 38°21' E 015°35'7 7.0
2017-Feb-20 12:33N 38°14' E 015°38'9 8.8
2017-Feb-20 11:33N 38°06' E 015°36'10 9.5
2017-Feb-20 10:33N 37°56' E 015°38'1010.2
2017-Feb-20 09:33N 37°51' E 015°49'382 8.2
2017-Feb-18 11:07N 44°05' E 014°03'611.2
2017-Feb-18 10:33N 44°10' E 013°58'1111.3
2017-Feb-18 09:33N 44°19' E 013°49'1111.2
2017-Feb-18 08:33N 44°29' E 013°40'1111.0
2017-Feb-18 07:33N 44°38' E 013°32'1111.0
2017-Feb-18 06:33N 44°47' E 013°23'1111.0
2017-Feb-18 05:33N 44°56' E 013°15'1110.9
2017-Feb-18 04:33N 45°06' E 013°07'1110.8
2017-Feb-18 03:33N 45°16' E 013°03'1010.0
2017-Feb-18 02:33N 45°26' E 013°07'9 8.8
2017-Feb-18 01:33N 45°32' E 013°16'1010.0
2017-Feb-18 00:34N 45°36' E 013°29'10 9.8
2017-Feb-17 23:34N 45°34' E 013°43'1 1.1
2017-Feb-17 22:30N 45°33' E 013°44'0 0.0
2017-Feb-17 21:33N 45°33' E 013°44'0 0.0
2017-Feb-17 20:33N 45°33' E 013°44'0 0.0
2017-Feb-17 19:33N 45°33' E 013°44'0 0.0
2017-Feb-17 18:33N 45°33' E 013°44'0 0.0
2017-Feb-17 17:33N 45°33' E 013°44'0 0.0
2017-Feb-17 16:33N 45°33' E 013°44'0 0.0
2017-Feb-17 15:26N 45°33' E 013°44'0 0.0
2017-Feb-17 14:32N 45°33' E 013°44'0 0.0
2017-Feb-17 13:29N 45°33' E 013°44'0 0.0
2017-Feb-17 12:32N 45°33' E 013°44'0 0.0
2017-Feb-17 11:29N 45°33' E 013°44'0 0.0
2017-Feb-17 10:32N 45°33' E 013°44'0 0.0
2017-Feb-17 09:29N 45°33' E 013°44'0 0.0
2017-Feb-17 08:32N 45°33' E 013°44'0 0.0
2017-Feb-17 07:32N 45°33' E 013°44'0 0.0
2017-Feb-17 06:32N 45°33' E 013°44'0 0.0
2017-Feb-17 05:32N 45°33' E 013°44'0 0.0
2017-Feb-17 04:23N 45°33' E 013°44'0 0.0
2017-Feb-17 03:32N 45°33' E 013°44'0 0.0
2017-Feb-17 02:32N 45°33' E 013°44'0 0.0
2017-Feb-17 01:32N 45°33' E 013°44'0 0.0
2017-Feb-17 00:32N 45°33' E 013°44'0 0.0
2017-Feb-16 23:32N 45°33' E 013°44'0 0.0
2017-Feb-16 22:29N 45°33' E 013°44'0 0.0
2017-Feb-16 21:29N 45°33' E 013°44'0 0.0
2017-Feb-16 20:32N 45°33' E 013°44'0 0.0
2017-Feb-16 19:23N 45°33' E 013°44'0 0.0
2017-Feb-16 18:32N 45°33' E 013°44'0 0.0
2017-Feb-16 17:32N 45°33' E 013°44'0 0.0
2017-Feb-16 16:29N 45°33' E 013°44'0 0.0
2017-Feb-16 15:32N 45°33' E 013°44'0 0.0
2017-Feb-16 14:32N 45°33' E 013°44'0 0.0
2017-Feb-16 13:32N 45°33' E 013°44'0 0.0
2017-Feb-16 12:32N 45°33' E 013°44'0 0.0
2017-Feb-16 11:32N 45°33' E 013°44'0 0.0
2017-Feb-16 10:29N 45°33' E 013°44'0 0.0
2017-Feb-16 09:32N 45°33' E 013°44'0 0.0
2017-Feb-16 08:32N 45°33' E 013°44'0 0.0
2017-Feb-16 07:17N 45°33' E 013°44'0 0.0
2017-Feb-16 06:29N 45°33' E 013°44'0 0.0
2017-Feb-16 05:32N 45°33' E 013°44'0 0.0
2017-Feb-16 04:31N 45°33' E 013°44'0 0.0
2017-Feb-16 03:31N 45°33' E 013°44'0 0.0
2017-Feb-16 02:31N 45°33' E 013°44'0 0.0
2017-Feb-16 01:31N 45°33' E 013°44'0 0.0
2017-Feb-16 00:28N 45°33' E 013°44'0 0.0
2017-Feb-15 23:28N 45°33' E 013°44'0 0.0
2017-Feb-15 22:31N 45°33' E 013°44'0 0.0
2017-Feb-15 21:28N 45°33' E 013°44'1 1.0
2017-Feb-15 20:33N 45°33' E 013°43'9 9.4
2017-Feb-15 19:33N 45°33' E 013°29'1111.0
2017-Feb-15 18:33N 45°27' E 013°16'1010.2
2017-Feb-15 17:33N 45°17' E 013°13'9 9.0
2017-Feb-15 16:33N 45°08' E 013°13'1010.1
2017-Feb-15 15:33N 45°01' E 013°02'1211.6
2017-Feb-15 14:33N 44°52' E 012°52'1111.4
2017-Feb-15 13:33N 44°44' E 012°41'1411.1
2017-Feb-15 12:18N 44°34' E 012°28'9 9.2
2017-Feb-15 11:16N 44°29' E 012°16'1 1.1
2017-Feb-15 10:32N 44°28' E 012°16'0 0.0
2017-Feb-15 07:20N 44°28' E 012°16'0 0.0
2017-Feb-15 06:32N 44°28' E 012°16'0 0.0
2017-Feb-15 05:17N 44°28' E 012°16'0 0.0
2017-Feb-15 04:20N 44°28' E 012°16'0 0.0
2017-Feb-15 03:26N 44°28' E 012°16'0 0.0
2017-Feb-15 02:32N 44°28' E 012°16'0 0.0
2017-Feb-15 01:32N 44°28' E 012°16'0 0.0
2017-Feb-15 00:32N 44°28' E 012°16'0 0.0
2017-Feb-14 21:17N 44°28' E 012°16'9 0.2
2017-Feb-13 08:33N 44°30' E 012°28'1 0.4
2017-Feb-13 05:10N 44°31' E 012°30'0 0.0
2017-Feb-13 03:10N 44°31' E 012°30'0 0.0
2017-Feb-13 02:25N 44°31' E 012°30'0 0.0
2017-Feb-13 01:19N 44°31' E 012°30'0 0.0
2017-Feb-13 00:19N 44°31' E 012°30'1 0.8
2017-Feb-12 22:33N 44°30' E 012°32'10 7.9
2017-Feb-12 21:20N 44°30' E 012°45'7 8.1
2017-Feb-12 20:31N 44°29' E 012°54'8 8.2
2017-Feb-12 19:33N 44°28' E 013°05'7 6.8
2017-Feb-12 18:33N 44°23' E 013°12'8 7.9
2017-Feb-12 17:33N 44°16' E 013°18'  

Dump ship's entire track history